createdAt,value
2023-04-13T00:01:38.406Z,98881.31
2023-04-13T00:04:27.702Z,98881.31
2023-04-13T00:07:17.946Z,98885.63
2023-04-13T00:10:08.753Z,98886.66
2023-04-13T00:12:58.311Z,98888.75
2023-04-13T00:15:46.935Z,98890.38
2023-04-13T00:18:35.538Z,98879.28
2023-04-13T00:21:25.757Z,98880.75
2023-04-13T00:24:16.095Z,98880.44
2023-04-13T00:27:04.972Z,98886.13
2023-04-13T00:29:56.200Z,98886.91
2023-04-13T00:32:46.693Z,98889.59
2023-04-13T00:35:35.408Z,98899.22
2023-04-13T00:38:27.320Z,98890.06
2023-04-13T00:41:17.475Z,98901.78
2023-04-13T00:44:06.342Z,98894.34
2023-04-13T00:46:56.452Z,98889.47
2023-04-13T00:49:45.816Z,98888.75
2023-04-13T00:52:38.134Z,98895.72
2023-04-13T00:55:27.748Z,98898.97
2023-04-13T00:58:18.102Z,98890.63
2023-04-13T01:01:06.979Z,98889.69
2023-04-13T01:03:55.652Z,98893.88
2023-04-13T01:06:50.239Z,98892.38
2023-04-13T01:09:41.803Z,98898.19
2023-04-13T01:12:36.438Z,98906.75
2023-04-13T01:15:27.395Z,98905.59
2023-04-13T01:18:16.404Z,98908.16
2023-04-13T01:21:06.322Z,98908.72
2023-04-13T01:24:06.464Z,98913.03
2023-04-13T01:26:59.387Z,98913.59
2023-04-13T01:29:50.604Z,98916.84
2023-04-13T01:32:39.919Z,98921.03
2023-04-13T01:35:29.317Z,98916.50
2023-04-13T01:38:18.782Z,98916.94
2023-04-13T01:41:08.750Z,98917.88
2023-04-13T01:43:57.629Z,98911.63
2023-04-13T01:46:49.575Z,98901.88
2023-04-13T01:49:38.306Z,98914.88
2023-04-13T01:52:28.385Z,98923.09
2023-04-13T01:55:17.052Z,98927.16
2023-04-13T01:58:07.134Z,98924.97
2023-04-13T02:00:56.032Z,98925.75
2023-04-13T02:03:46.189Z,98933.69
2023-04-13T02:06:35.004Z,98938.41
2023-04-13T02:09:23.821Z,98941.78
2023-04-13T02:12:12.912Z,98951.53
2023-04-13T02:15:02.179Z,98952.56
2023-04-13T02:17:50.946Z,98955.13
2023-04-13T02:20:47.507Z,98969.53
2023-04-13T02:23:36.808Z,98974.38
2023-04-13T02:26:26.335Z,98975.31
2023-04-13T02:29:15.098Z,98977.06
2023-04-13T02:32:03.720Z,98974.50
2023-04-13T02:34:53.400Z,98981.09
2023-04-13T02:37:43.593Z,98978.56
2023-04-13T02:40:32.175Z,98984.47
2023-04-13T02:43:21.049Z,98974.13
2023-04-13T02:46:09.830Z,98968.00
2023-04-13T02:48:58.494Z,98979.25
2023-04-13T02:51:47.126Z,98973.91
2023-04-13T02:54:37.236Z,98974.97
2023-04-13T02:57:25.980Z,98979.72
2023-04-13T03:00:16.292Z,98977.75
2023-04-13T03:03:06.935Z,98975.31
2023-04-13T03:05:55.961Z,98982.13
2023-04-13T03:08:44.728Z,98987.16
2023-04-13T03:11:34.637Z,98987.16
2023-04-13T03:14:23.174Z,98985.75
2023-04-13T03:17:13.015Z,98989.59
2023-04-13T03:20:02.084Z,99002.31
2023-04-13T03:22:51.652Z,98999.66
2023-04-13T03:25:40.809Z,99002.31
2023-04-13T03:28:30.757Z,99005.00
2023-04-13T03:31:20.109Z,99014.72
2023-04-13T03:34:08.687Z,99008.38
2023-04-13T03:36:57.217Z,99010.00
2023-04-13T03:39:46.060Z,99026.22
2023-04-13T03:42:34.647Z,99024.19
2023-04-13T03:45:24.693Z,99032.28
2023-04-13T03:48:13.307Z,99034.25
2023-04-13T03:51:01.896Z,99035.91
2023-04-13T03:53:50.484Z,99038.41
2023-04-13T03:56:39.163Z,99043.19
2023-04-13T03:59:27.889Z,99031.00
2023-04-13T04:02:18.090Z,99039.13
2023-04-13T04:05:10.616Z,99049.66
2023-04-13T04:07:59.283Z,99033.53
2023-04-13T04:10:47.850Z,99036.69
2023-04-13T04:13:36.427Z,99031.47
2023-04-13T04:16:25.171Z,99026.59
2023-04-13T04:19:15.225Z,99018.22
2023-04-13T04:22:07.017Z,99023.34
2023-04-13T04:24:59.072Z,99019.63
2023-04-13T04:27:49.845Z,99019.63
2023-04-13T04:30:38.940Z,99029.00
2023-04-13T04:33:27.871Z,99031.25
2023-04-13T04:36:18.500Z,99034.34
2023-04-13T04:39:07.779Z,99045.38
2023-04-13T04:42:02.983Z,99052.34
2023-04-13T04:44:52.897Z,99057.09
2023-04-13T04:47:43.387Z,99060.81
2023-04-13T04:50:33.316Z,99057.41
2023-04-13T04:53:23.866Z,99061.03
2023-04-13T04:56:12.436Z,99065.56
2023-04-13T04:59:01.223Z,99060.81
2023-04-13T05:01:50.489Z,99058.97
2023-04-13T05:04:41.960Z,99076.25
2023-04-13T05:07:30.885Z,99082.72
2023-04-13T05:10:20.938Z,99085.28
2023-04-13T05:13:09.533Z,99093.03
2023-04-13T05:15:58.205Z,99105.13
2023-04-13T05:18:48.026Z,99116.84
2023-04-13T05:21:37.094Z,99130.50
2023-04-13T05:24:25.953Z,99145.34
2023-04-13T05:27:16.006Z,99130.19
2023-04-13T05:30:05.421Z,99127.97
2023-04-13T05:32:54.131Z,99132.13
2023-04-13T05:35:43.842Z,99144.88
2023-04-13T05:38:33.048Z,99150.94
2023-04-13T05:41:21.771Z,99152.28
2023-04-13T05:44:11.989Z,99149.63
2023-04-13T05:47:02.252Z,99164.38
2023-04-13T05:49:50.881Z,99168.28
2023-04-13T05:52:39.450Z,99174.78
2023-04-13T05:55:28.464Z,99180.75
2023-04-13T05:58:18.958Z,99190.47
2023-04-13T06:01:12.143Z,99183.50
2023-04-13T06:04:03.691Z,99195.72
2023-04-13T06:06:52.531Z,99197.19
2023-04-13T06:09:41.328Z,99207.63
2023-04-13T06:12:30.318Z,99198.22
2023-04-13T06:15:19.367Z,99201.81
2023-04-13T06:18:12.398Z,99199.13
2023-04-13T06:21:00.995Z,99190.88
2023-04-13T06:23:50.576Z,99186.97
2023-04-13T06:26:39.428Z,99189.63
2023-04-13T06:29:28.536Z,99193.34
2023-04-13T06:32:19.844Z,99195.44
2023-04-13T06:35:10.880Z,99205.06
2023-04-13T06:38:01.553Z,99206.09
2023-04-13T06:40:50.078Z,99194.97
2023-04-13T06:43:38.770Z,99189.06
2023-04-13T06:46:27.715Z,99187.56
2023-04-13T06:49:16.550Z,99182.13
2023-04-13T06:52:06.791Z,99184.50
2023-04-13T06:54:55.696Z,99189.91
2023-04-13T06:57:44.430Z,99194.22
2023-04-13T07:00:33.855Z,99191.09
2023-04-13T07:03:23.099Z,99177.91
2023-04-13T07:06:18.123Z,99182.31
2023-04-13T07:09:09.688Z,99185.56
2023-04-13T07:11:58.805Z,99188.09
2023-04-13T07:14:47.896Z,99192.19
2023-04-13T07:17:36.954Z,99196.13
2023-04-13T07:20:26.083Z,99203.75
2023-04-13T07:23:14.864Z,99209.63
2023-04-13T07:26:05.456Z,99220.31
2023-04-13T07:28:54.044Z,99230.81
2023-04-13T07:31:43.703Z,99214.81
2023-04-13T07:34:32.387Z,99222.53
2023-04-13T07:37:20.973Z,99221.09
2023-04-13T07:40:11.636Z,99227.66
2023-04-13T07:43:01.730Z,99223.94
2023-04-13T07:45:50.386Z,99230.91
2023-04-13T07:48:39.177Z,99240.31
2023-04-13T07:51:28.243Z,99237.66
2023-04-13T07:54:17.347Z,99252.44
2023-04-13T07:57:06.844Z,99248.44
2023-04-13T07:59:56.778Z,99256.91
2023-04-13T08:02:46.186Z,99260.75
2023-04-13T08:05:37.377Z,99268.94
2023-04-13T08:08:26.490Z,99274.28
2023-04-13T08:11:15.105Z,99278.69
2023-04-13T08:14:03.801Z,99267.91
2023-04-13T08:16:54.000Z,99273.81
2023-04-13T08:19:42.876Z,99272.47
2023-04-13T08:22:31.588Z,99275.81
2023-04-13T08:25:20.398Z,99289.84
2023-04-13T08:28:09.680Z,99279.88
2023-04-13T08:30:58.333Z,99297.25
2023-04-13T08:33:48.675Z,99296.44
2023-04-13T08:36:37.847Z,99304.94
2023-04-13T08:39:27.279Z,99301.59
2023-04-13T08:42:16.510Z,99295.47
2023-04-13T08:45:05.889Z,99292.41
2023-04-13T08:47:54.814Z,99293.00
2023-04-13T08:50:45.448Z,99297.25
2023-04-13T08:53:34.134Z,99293.56
2023-04-13T08:56:30.972Z,99304.16
2023-04-13T08:59:28.491Z,99303.31
2023-04-13T09:02:17.146Z,99293.84
2023-04-13T09:05:16.272Z,99304.06
2023-04-13T09:08:08.278Z,99294.78
2023-04-13T09:10:58.414Z,99307.94
2023-04-13T09:13:51.235Z,99310.72
2023-04-13T09:16:41.558Z,99308.66
2023-04-13T09:19:34.217Z,99312.44
2023-04-13T09:22:22.889Z,99306.69
2023-04-13T09:25:23.697Z,99312.03
2023-04-13T09:28:18.157Z,99322.72
2023-04-13T09:31:07.886Z,99316.06
2023-04-13T09:33:56.850Z,99323.03
2023-04-13T09:36:54.323Z,99319.84
2023-04-13T09:39:44.062Z,99321.41
2023-04-13T09:42:34.696Z,99325.56
2023-04-13T09:45:24.649Z,99327.66
2023-04-13T09:48:20.568Z,99322.31
2023-04-13T09:51:09.813Z,99332.91
2023-04-13T09:53:58.526Z,99336.38
2023-04-13T09:56:48.372Z,99334.22
2023-04-13T09:59:38.644Z,99341.13
2023-04-13T10:02:27.890Z,99341.50
2023-04-13T10:05:17.401Z,99331.56
2023-04-13T10:08:07.245Z,99332.38
2023-04-13T10:10:55.946Z,99328.66
2023-04-13T10:13:49.262Z,99324.59
2023-04-13T10:17:10.616Z,99323.53
2023-04-13T10:20:01.711Z,99317.25
2023-04-13T10:22:51.047Z,99318.88
2023-04-13T10:25:50.154Z,99323.31
2023-04-13T10:28:44.839Z,99328.22
2023-04-13T10:31:38.025Z,99328.94
2023-04-13T10:34:28.945Z,99338.13
2023-04-13T10:37:21.608Z,99341.72
2023-04-13T10:40:14.265Z,99325.25
2023-04-13T10:43:03.056Z,99320.69
2023-04-13T10:45:51.676Z,99323.16
2023-04-13T10:48:42.677Z,99327.75
2023-04-13T10:51:41.063Z,99330.13
2023-04-13T10:54:31.837Z,99326.41
2023-04-13T10:57:20.789Z,99324.19
2023-04-13T11:00:22.121Z,99327.59
2023-04-13T11:03:16.786Z,99323.53
2023-04-13T11:06:06.456Z,99321.53
2023-04-13T11:09:01.576Z,99323.16
2023-04-13T11:11:54.247Z,99318.97
2023-04-13T11:14:47.459Z,99315.78
2023-04-13T11:17:36.180Z,99318.09
2023-04-13T11:20:34.612Z,99321.81
2023-04-13T11:23:24.220Z,99322.59
2023-04-13T11:26:14.653Z,99322.84
2023-04-13T11:29:05.652Z,99325.97
2023-04-13T11:31:54.332Z,99326.31
2023-04-13T11:34:43.066Z,99325.97
2023-04-13T11:37:32.229Z,99335.75
2023-04-13T11:40:23.804Z,99336.19
2023-04-13T11:43:12.490Z,99325.53
2023-04-13T11:46:02.776Z,99326.41
2023-04-13T11:48:53.731Z,99332.13
2023-04-13T11:51:42.744Z,99321.81
2023-04-13T11:54:31.964Z,99319.13
2023-04-13T11:57:20.710Z,99316.47
2023-04-13T12:00:18.384Z,99300.66
2023-04-13T12:03:34.555Z,99315.41
2023-04-13T12:06:25.273Z,99309.13
2023-04-13T12:09:17.729Z,99308.31
2023-04-13T12:15:17.151Z,99323.34
2023-04-13T12:18:18.132Z,99317.06
2023-04-13T12:21:16.427Z,99304.66
2023-04-13T12:24:06.172Z,99306.84
2023-04-13T12:29:46.542Z,99321.94
2023-04-13T12:32:42.172Z,99309.41
2023-04-13T12:35:32.148Z,99304.16
2023-04-13T12:38:21.021Z,99311.81
2023-04-13T12:41:11.358Z,99317.16
2023-04-13T12:44:00.053Z,99307.78
2023-04-13T12:46:48.658Z,99308.00
2023-04-13T12:49:37.435Z,99304.63
2023-04-13T12:52:28.611Z,99313.56
2023-04-13T12:55:17.716Z,99315.78
2023-04-13T12:58:06.504Z,99309.03
2023-04-13T13:00:55.246Z,99306.94
2023-04-13T13:03:45.994Z,99324.16
2023-04-13T13:06:35.102Z,99326.97
2023-04-13T13:09:25.113Z,99335.72
2023-04-13T13:12:13.824Z,99326.50
2023-04-13T13:15:03.461Z,99304.34
2023-04-13T13:17:52.124Z,99294.63
2023-04-13T13:20:41.441Z,99312.00
2023-04-13T13:23:30.374Z,99307.13
2023-04-13T13:26:24.426Z,99308.06
2023-04-13T13:29:17.541Z,99311.03
2023-04-13T13:32:07.827Z,99310.88
2023-04-13T13:34:56.768Z,99309.41
2023-04-13T13:37:45.695Z,99307.13
2023-04-13T13:40:34.830Z,99304.34
2023-04-13T13:43:24.943Z,99307.97
2023-04-13T13:46:13.551Z,99312.38
2023-04-13T13:49:02.570Z,99313.88
2023-04-13T13:51:51.464Z,99315.75
2023-04-13T13:54:40.303Z,99321.69
2023-04-13T13:57:29.275Z,99313.88
2023-04-13T14:00:20.513Z,99313.53
2023-04-13T14:03:09.404Z,99310.56
2023-04-13T14:05:58.166Z,99318.72
2023-04-13T14:08:47.304Z,99314.88
2023-04-13T14:11:38.498Z,99317.00
2023-04-13T14:14:27.193Z,99316.34
2023-04-13T14:17:17.285Z,99310.38
2023-04-13T14:20:08.911Z,99314.00
2023-04-13T14:22:59.047Z,99308.94
2023-04-13T14:25:47.764Z,99306.41
2023-04-13T14:28:38.282Z,99301.97
2023-04-13T14:31:27.437Z,99309.53
2023-04-13T14:34:17.674Z,99303.31
2023-04-13T14:37:06.535Z,99311.81
2023-04-13T14:39:55.859Z,99300.28
2023-04-13T14:42:46.621Z,99305.84
2023-04-13T14:45:35.254Z,99304.06
2023-04-13T14:48:23.930Z,99304.19
2023-04-13T14:51:18.788Z,99305.38
2023-04-13T14:54:07.758Z,99315.38
2023-04-13T14:56:56.488Z,99313.09
2023-04-13T14:59:46.059Z,99327.09
2023-04-13T15:02:34.881Z,99323.03
2023-04-13T15:05:23.798Z,99330.44
2023-04-13T15:08:15.751Z,99334.72
2023-04-13T15:11:04.474Z,99341.25
2023-04-13T15:13:53.258Z,99345.41
2023-04-13T15:16:41.935Z,99348.59
2023-04-13T15:19:30.652Z,99356.53
2023-04-13T15:22:19.251Z,99346.97
2023-04-13T15:25:10.131Z,99348.56
2023-04-13T15:27:59.696Z,99343.69
2023-04-13T15:30:48.346Z,99346.94
2023-04-13T15:33:38.039Z,99353.50
2023-04-13T15:36:27.723Z,99355.06
2023-04-13T15:39:16.317Z,99355.06
2023-04-13T15:42:06.655Z,99361.59
2023-04-13T15:44:55.435Z,99363.25
2023-04-13T15:47:44.533Z,99370.56
2023-04-13T15:50:33.498Z,99373.31
2023-04-13T15:53:22.050Z,99365.88
2023-04-13T15:56:11.282Z,99369.28
2023-04-13T15:59:01.634Z,99370.03
2023-04-13T16:01:51.669Z,99375.75
2023-04-13T16:04:40.970Z,99380.09
2023-04-13T16:07:29.670Z,99370.19
2023-04-13T16:10:19.235Z,99375.38
2023-04-13T16:13:18.672Z,99380.72
2023-04-13T16:16:09.549Z,99379.09
2023-04-13T16:18:58.804Z,99385.47
2023-04-13T16:21:50.984Z,99376.63
2023-04-13T16:24:41.077Z,99377.09
2023-04-13T16:27:30.030Z,99384.56
2023-04-13T16:30:21.048Z,99374.06
2023-04-13T16:33:11.439Z,99368.41
2023-04-13T16:36:02.832Z,99368.41
2023-04-13T16:38:51.717Z,99372.13
2023-04-13T16:41:40.394Z,99367.22
2023-04-13T16:44:29.087Z,99376.06
2023-04-13T16:47:17.864Z,99372.56
2023-04-13T16:50:09.670Z,99379.97
2023-04-13T16:52:58.528Z,99380.34
2023-04-13T16:55:51.190Z,99377.47
2023-04-13T16:58:40.066Z,99377.09
2023-04-13T17:01:29.037Z,99379.53
2023-04-13T17:04:17.884Z,99381.78
2023-04-13T17:07:07.988Z,99383.25
2023-04-13T17:09:57.063Z,99381.59
2023-04-13T17:12:46.605Z,99377.47
2023-04-13T17:15:37.595Z,99381.31
2023-04-13T17:18:26.406Z,99377.47
2023-04-13T17:21:14.970Z,99375.91
2023-04-13T17:24:05.760Z,99375.09
2023-04-13T17:26:54.933Z,99368.34
2023-04-13T17:29:43.537Z,99364.72
2023-04-13T17:32:32.227Z,99359.00
2023-04-13T17:35:21.497Z,99368.41
2023-04-13T17:38:10.129Z,99363.16
2023-04-13T17:41:00.087Z,99363.25
2023-04-13T17:43:48.716Z,99355.50
2023-04-13T17:46:37.320Z,99354.81
2023-04-13T17:49:27.939Z,99359.38
2023-04-13T17:52:16.508Z,99360.63
2023-04-13T17:55:05.508Z,99361.78
2023-04-13T17:57:55.515Z,99361.59
2023-04-13T18:00:44.587Z,99366.78
2023-04-13T18:03:33.226Z,99390.97
2023-04-13T18:06:22.182Z,99410.69
2023-04-13T18:09:12.677Z,99420.53
2023-04-13T18:12:01.350Z,99442.94
2023-04-13T18:14:51.475Z,99467.44
2023-04-13T18:17:40.928Z,99488.84
2023-04-13T18:20:30.058Z,99509.19
2023-04-13T18:23:18.749Z,99517.63
2023-04-13T18:26:07.408Z,99526.56
2023-04-13T18:28:56.032Z,99524.91
2023-04-13T18:31:46.172Z,99527.41
2023-04-13T18:34:36.397Z,99529.03
2023-04-13T18:37:25.069Z,99536.47
2023-04-13T18:40:15.024Z,99548.44
2023-04-13T18:43:03.716Z,99545.50
2023-04-13T18:45:52.324Z,99546.69
2023-04-13T18:48:42.459Z,99548.78
2023-04-13T18:51:32.839Z,99555.47
2023-04-13T18:54:21.473Z,99555.47
2023-04-13T18:57:10.573Z,99548.63
2023-04-13T18:59:59.759Z,99546.41
2023-04-13T19:02:49.625Z,99545.13
2023-04-13T19:05:39.837Z,99537.78
2023-04-13T19:08:28.539Z,99537.78
2023-04-13T19:11:18.423Z,99530.81
2023-04-13T19:14:06.983Z,99523.84
2023-04-13T19:16:55.660Z,99522.59
2023-04-13T19:19:44.416Z,99518.50
2023-04-13T19:22:34.471Z,99521.41
2023-04-13T19:25:23.339Z,99515.81
2023-04-13T19:28:12.168Z,99509.31
2023-04-13T19:31:01.350Z,99511.97
2023-04-13T19:33:51.630Z,99505.03
2023-04-13T19:36:41.077Z,99512.81
2023-04-13T19:39:31.572Z,99506.63
2023-04-13T19:42:20.201Z,99505.81
2023-04-13T19:45:09.608Z,99507.47
2023-04-13T19:47:58.260Z,99515.47
2023-04-13T19:50:47.342Z,99510.94
2023-04-13T19:53:38.122Z,99505.59
2023-04-13T19:56:30.444Z,99502.56
2023-04-13T19:59:19.068Z,99509.66
2023-04-13T20:02:08.005Z,99497.34
2023-04-13T20:04:56.752Z,99499.03
2023-04-13T20:07:45.339Z,99493.31
2023-04-13T20:10:34.295Z,99489.25
2023-04-13T20:13:24.471Z,99493.75
2023-04-13T20:16:13.163Z,99489.31
2023-04-13T20:19:01.787Z,99501.19
2023-04-13T20:21:51.320Z,99507.88
2023-04-13T20:24:43.709Z,99507.88
2023-04-13T20:27:34.240Z,99506.00
2023-04-13T20:30:24.789Z,99514.66
2023-04-13T20:33:16.421Z,99528.19
2023-04-13T20:36:05.393Z,99514.25
2023-04-13T20:38:55.022Z,99513.31
2023-04-13T20:41:50.754Z,99516.63
2023-04-13T20:44:44.788Z,99509.66
2023-04-13T20:47:35.651Z,99499.88
2023-04-13T20:50:27.584Z,99497.03
2023-04-13T20:53:17.611Z,99485.59
2023-04-13T20:56:07.679Z,99480.03
2023-04-13T20:58:58.112Z,99475.34
2023-04-13T21:01:49.059Z,99472.09
2023-04-13T21:04:40.723Z,99458.53
2023-04-13T21:07:29.760Z,99462.63
2023-04-13T21:10:18.721Z,99458.50
2023-04-13T21:13:10.542Z,99461.41
2023-04-13T21:15:59.157Z,99463.00
2023-04-13T21:18:47.751Z,99460.56
2023-04-13T21:21:38.541Z,99464.28
2023-04-13T21:24:27.102Z,99474.94
2023-04-13T21:27:17.942Z,99480.09
2023-04-13T21:30:07.973Z,99486.47
2023-04-13T21:32:56.713Z,99479.09
2023-04-13T21:35:45.540Z,99472.53
2023-04-13T21:38:35.595Z,99481.56
2023-04-13T21:41:24.121Z,99488.53
2023-04-13T21:44:28.296Z,99499.66
2023-04-13T21:47:18.162Z,99494.75
2023-04-13T21:50:08.557Z,99504.19
2023-04-13T21:52:57.128Z,99505.84
2023-04-13T21:55:47.543Z,99502.13
2023-04-13T21:58:39.910Z,99499.69
2023-04-13T22:01:28.590Z,99490.66
2023-04-13T22:04:17.369Z,99487.16
2023-04-13T22:07:06.705Z,99482.88
2023-04-13T22:09:55.768Z,99484.09
2023-04-13T22:12:45.832Z,99473.44
2023-04-13T22:15:34.732Z,99465.66
2023-04-13T22:18:24.237Z,99473.22
2023-04-13T22:21:12.927Z,99460.34
2023-04-13T22:24:01.987Z,99450.47
2023-04-13T22:26:51.374Z,99455.81
2023-04-13T22:29:41.547Z,99446.41
2023-04-13T22:32:30.528Z,99437.81
2023-04-13T22:35:19.604Z,99444.78
2023-04-13T22:38:08.355Z,99437.38
2023-04-13T22:40:57.045Z,99428.34
2023-04-13T22:43:45.873Z,99437.38
2023-04-13T22:46:37.218Z,99439.84
2023-04-13T22:49:27.513Z,99444.06
2023-04-13T22:52:19.206Z,99445.53
2023-04-13T22:55:08.217Z,99456.63
2023-04-13T22:57:56.799Z,99458.97
2023-04-13T23:00:45.344Z,99466.97
2023-04-13T23:03:35.844Z,99468.59
2023-04-13T23:06:25.214Z,99480.09
2023-04-13T23:09:13.769Z,99491.16
2023-04-13T23:12:02.620Z,99490.38
2023-04-13T23:14:53.241Z,99498.56
2023-04-13T23:17:41.962Z,99505.13
2023-04-13T23:20:32.548Z,99496.09
2023-04-13T23:23:21.127Z,99501.84
2023-04-13T23:26:09.754Z,99503.69
2023-04-13T23:28:58.714Z,99505.94
2023-04-13T23:31:47.558Z,99502.88
2023-04-13T23:34:36.154Z,99505.34
2023-04-13T23:37:26.191Z,99502.66
2023-04-13T23:40:14.982Z,99504.88
2023-04-13T23:43:03.589Z,99508.00
2023-04-13T23:45:52.823Z,99503.50
2023-04-13T23:48:41.601Z,99499.38
2023-04-13T23:51:31.222Z,99497.94
2023-04-13T23:54:21.406Z,99499.38
2023-04-13T23:57:11.868Z,99493.25
